KELP/ELP METAR and TAF weather

Enter ICAO airport designator
Station Type Date Time Source
KELP METAR 2018/01/21 11:51 UTC NOAA

KELP 211151Z 29016G25KT 10SM SCT045 BKN070 07/M04 A2995 RMK AO2 PK WND 30032/1055 SLP102 T00721039 10156 20072 51020


Station Type Date Time Source
KELP Decoded METAR 2018/01/21 11:51 UTC NOAA

EL PASO INTERNATIONAL AIRPORT , TX, United States (KELP) 31-49N 106-23W 1197M
Jan 21, 2018 - 06:51 AM EST / 2018.01.21 1151 UTC
Wind: from the WNW (290 degrees) at 18 MPH (16 KT) gusting to 29 MPH (25 KT):0
Visibility: 10 mile(s):0
Sky conditions: mostly cloudy
Temperature: 45.0 F (7.2 C)
Dew Point: 25.0 F (-3.9 C)
Relative Humidity: 45%
Pressure (altimeter): 29.95 in. Hg (1014 hPa)
Pressure tendency: 0.06 inches (2.0 hPa) higher than three hours ago
ob: KELP 211151Z 29016G25KT 10SM SCT045 BKN070 07/M04 A2995 RMK AO2 PK WND 30032/1055 SLP102 T00721039 10156 20072 51020
cycle: 12

Station Type Date Time Source
KELP TAF 2018/01/21 12:22 UTC NOAA

TAF KELP 211120Z 2112/2212 27026G36KT P6SM SCT100
FM220000 28017G27KT P6SM SCT100
FM220700 28012KT P6SM SKC


Example: see airport list